Pagrindinis puslapis
METAR-TAF:

METAR-TAF

Oro uostai :

Isfahanas, Iranas

platuma: 32-28N, ilguma: 051-43E, Aukštis: 1590 m

Dabartinis oras

Ataskaita buvo paskelbta 34 minutes, ne 10:00 UTC
Vėjas 6 kt iš Rytų/Pietryčių
Temperatūra 24°C
Drėgmė 25%
Slėgis 1028 hPa
Matomumas 10 km arba daugiau
Mažai debesys ne aukštis 4000 ft

METAR: OIFM 141000Z 12006KT 9999 FEW040 24/03 Q1028 A3036

Laikas: 14:04 (10:34 UTC)

Prognozė

Ataskaita buvo paskelbta 5 valandos ir 4 minutes, ne 05:30 UTC
Prognozė galioja nuo 14 metu 06 UTC su 15 metu 12 UTC
Vėjas 8 kt iš Rytų
Matomumas: 7000 m
Laikinai
nuo 14 metu 09 UTC su 14 metu 15 UTC
Vėjas 16 kt iš Šiaurės/Šiaurės Rytų
Mažai debesys ne aukštis 3500 ft, aukštai iškilę kamuoliniai debesys.
Išsisklaidę debesys ne aukštis 4000 ft
Išsisklaidę debesys ne aukštis 10000 ft
Tikimybė 40%
nuo 15 metu 02 UTC su 15 metu 06 UTC
Matomumas: 4000 m
migla

TAF: OIFM 140530Z 1406/1512 08008KT 7000 NSC TEMPO 1409/1415 02016KT FEW035TCU SCT040 SCT100 PROB40 1502/1506 4000 HZ

Orai ataskaitas ir orų prognozės (METAR, TAF).

turimą stotys yra geltonos ir raudonos taškus žemėlapyje.

Perkelti pele per norėdami pamatyti stoties vardą.

Tada spustelėkite, norėdami matyti oro stebėjimo ir prognozės.

Norėdami pakeisti žemėlapį: spustelėkite ant žalios mygtukų su juodo kryžiaus žemyn,; žalią mygtuką su brūkšneliu, jei norite nutolinti; arba žalių rodyklių gretimoms žemėlapius.


METAR-TAF: